createdAt,value
2018-07-16T00:00:58.254Z,0.00
2018-07-16T00:01:58.256Z,0.00
2018-07-16T00:02:58.257Z,0.00
2018-07-16T00:03:58.250Z,0.00
2018-07-16T00:04:58.247Z,0.00
2018-07-16T00:05:58.251Z,0.00
2018-07-16T00:06:58.251Z,0.00
2018-07-16T00:07:58.249Z,0.00
2018-07-16T00:08:58.249Z,0.00
2018-07-16T00:09:58.242Z,0.00
2018-07-16T00:10:58.241Z,0.00
2018-07-16T00:11:58.239Z,0.00
2018-07-16T00:12:58.238Z,0.00
2018-07-16T00:13:58.241Z,0.00
2018-07-16T00:14:58.240Z,0.00
2018-07-16T00:15:58.238Z,0.00
2018-07-16T00:16:58.237Z,0.00
2018-07-16T00:17:58.230Z,0.00
2018-07-16T00:18:58.232Z,0.00
2018-07-16T00:19:58.233Z,0.00
2018-07-16T00:20:58.230Z,0.00
2018-07-16T00:21:58.224Z,0.00
2018-07-16T00:22:58.224Z,0.00
2018-07-16T00:23:58.222Z,0.00
2018-07-16T00:24:58.220Z,0.00
2018-07-16T00:25:58.223Z,0.00
2018-07-16T00:26:58.223Z,0.00
2018-07-16T00:27:58.220Z,0.00
2018-07-16T00:28:58.219Z,0.00
2018-07-16T00:29:58.212Z,0.00
2018-07-16T00:30:58.213Z,0.00
2018-07-16T00:31:58.210Z,0.00
2018-07-16T00:32:58.208Z,0.00
2018-07-16T00:33:58.212Z,0.00
2018-07-16T00:34:58.209Z,0.00
2018-07-16T00:35:58.204Z,0.00
2018-07-16T00:36:58.202Z,0.00
2018-07-16T00:37:58.204Z,0.00
2018-07-16T00:38:58.204Z,0.00
2018-07-16T00:39:58.203Z,0.00
2018-07-16T00:40:58.200Z,0.00
2018-07-16T00:41:58.197Z,0.00
2018-07-16T00:42:58.193Z,0.00
2018-07-16T00:43:58.193Z,0.00
2018-07-16T00:44:58.190Z,0.00
2018-07-16T00:45:58.196Z,0.00
2018-07-16T00:46:58.192Z,0.00
2018-07-16T00:47:58.191Z,0.00
2018-07-16T00:48:58.188Z,0.00
2018-07-16T00:49:58.183Z,0.00
2018-07-16T00:50:58.183Z,0.00
2018-07-16T00:51:58.185Z,0.00
2018-07-16T00:52:58.181Z,0.00
2018-07-16T00:53:58.178Z,0.00
2018-07-16T00:54:58.175Z,0.00
2018-07-16T00:55:58.173Z,0.00
2018-07-16T00:56:58.172Z,0.00
2018-07-16T00:57:58.178Z,0.00
2018-07-16T00:58:58.174Z,0.00
2018-07-16T00:59:58.172Z,0.00
2018-07-16T01:00:58.171Z,0.00
2018-07-16T01:01:58.164Z,0.00
2018-07-16T01:02:58.162Z,0.00
2018-07-16T01:03:58.161Z,0.00
2018-07-16T01:04:58.159Z,0.00
2018-07-16T01:05:58.161Z,0.00
2018-07-16T01:06:58.160Z,0.00
2018-07-16T01:07:58.156Z,0.00
2018-07-16T01:08:58.152Z,0.00
2018-07-16T01:09:58.156Z,0.00
2018-07-16T01:10:58.155Z,0.00
2018-07-16T01:11:58.154Z,0.00
2018-07-16T01:12:58.151Z,0.00
2018-07-16T01:13:58.145Z,0.00
2018-07-16T01:14:58.143Z,0.00
2018-07-16T01:15:58.143Z,0.00
2018-07-16T01:16:58.141Z,0.00
2018-07-16T01:17:58.144Z,0.00
2018-07-16T01:18:58.141Z,0.00
2018-07-16T01:19:58.139Z,0.00
2018-07-16T01:20:58.136Z,0.00
2018-07-16T01:21:58.131Z,0.00
2018-07-16T01:22:58.129Z,0.00
2018-07-16T01:23:58.132Z,0.00
2018-07-16T01:24:58.131Z,0.00
2018-07-16T01:25:58.126Z,0.00
2018-07-16T01:26:58.126Z,0.00
2018-07-16T01:27:58.121Z,0.00
2018-07-16T01:28:58.120Z,0.00
2018-07-16T01:29:58.123Z,0.00
2018-07-16T01:30:58.120Z,0.00
2018-07-16T01:31:58.124Z,0.00
2018-07-16T01:32:58.118Z,0.00
2018-07-16T01:33:58.111Z,0.00
2018-07-16T01:34:58.109Z,0.00
2018-07-16T01:35:58.107Z,0.00
2018-07-16T01:36:58.105Z,0.00
2018-07-16T01:37:58.108Z,0.00
2018-07-16T01:38:58.108Z,0.00
2018-07-16T01:39:58.101Z,0.00
2018-07-16T01:40:58.098Z,0.00
2018-07-16T01:41:58.101Z,0.00
2018-07-16T01:42:58.100Z,0.00
2018-07-16T01:43:58.100Z,0.00
2018-07-16T01:44:58.097Z,0.00
2018-07-16T01:45:58.092Z,0.00
2018-07-16T01:46:58.092Z,0.00
2018-07-16T01:47:58.087Z,0.00
2018-07-16T01:48:58.085Z,0.00
2018-07-16T01:49:58.089Z,0.00
2018-07-16T01:50:58.090Z,0.00
2018-07-16T01:51:58.085Z,0.00
2018-07-16T01:52:58.081Z,0.00
2018-07-16T01:53:58.076Z,0.00
2018-07-16T01:54:58.073Z,0.00
2018-07-16T01:55:58.078Z,0.00
2018-07-16T01:56:58.074Z,0.00
2018-07-16T01:57:58.068Z,0.00
2018-07-16T01:58:58.067Z,0.00
2018-07-16T01:59:58.067Z,0.00
2018-07-16T02:00:58.062Z,0.00
2018-07-16T02:01:58.066Z,0.00
2018-07-16T02:02:58.065Z,0.00
2018-07-16T02:03:58.064Z,0.00
2018-07-16T02:04:58.059Z,0.00
2018-07-16T02:05:58.053Z,0.00
2018-07-16T02:06:58.051Z,0.00
2018-07-16T02:07:58.050Z,0.00
2018-07-16T02:08:58.048Z,0.00
2018-07-16T02:09:58.051Z,0.00
2018-07-16T02:10:58.050Z,0.00
2018-07-16T02:11:58.044Z,0.00
2018-07-16T02:12:58.039Z,0.00
2018-07-16T02:13:58.046Z,0.00
2018-07-16T02:14:58.042Z,0.00
2018-07-16T02:15:58.038Z,0.00
2018-07-16T02:16:58.037Z,0.00
2018-07-16T02:17:58.031Z,0.00
2018-07-16T02:18:58.029Z,0.00
2018-07-16T02:19:58.030Z,0.00
2018-07-16T02:20:58.024Z,0.00
2018-07-16T02:21:58.027Z,0.00
2018-07-16T02:22:58.025Z,0.00
2018-07-16T02:23:58.025Z,0.00
2018-07-16T02:24:58.024Z,0.00
2018-07-16T02:25:58.023Z,0.00
2018-07-16T02:26:58.015Z,0.00
2018-07-16T02:27:58.022Z,0.00
2018-07-16T02:28:58.014Z,0.00
2018-07-16T02:29:58.007Z,0.00
2018-07-16T02:30:58.006Z,0.00
2018-07-16T02:31:58.005Z,0.00
2018-07-16T02:32:58.004Z,0.00
2018-07-16T02:33:58.006Z,0.00
2018-07-16T02:34:58.001Z,0.00
2018-07-16T02:35:57.999Z,0.00
2018-07-16T02:36:57.998Z,0.00
2018-07-16T02:37:57.990Z,0.00
2018-07-16T02:38:57.991Z,0.00
2018-07-16T02:39:57.989Z,0.00
2018-07-16T02:40:57.986Z,0.00
2018-07-16T02:41:57.988Z,0.00
2018-07-16T02:42:57.987Z,0.00
2018-07-16T02:43:57.979Z,0.00
2018-07-16T02:44:57.977Z,0.00
2018-07-16T02:45:57.980Z,0.00
2018-07-16T02:46:57.978Z,0.00
2018-07-16T02:47:57.976Z,0.00
2018-07-16T02:48:57.972Z,0.00
2018-07-16T02:49:57.968Z,0.00
2018-07-16T02:50:57.965Z,0.00
2018-07-16T02:51:57.962Z,4.00
2018-07-16T02:52:57.960Z,4.00
2018-07-16T02:53:57.963Z,4.00
2018-07-16T02:54:57.959Z,0.00
2018-07-16T02:55:57.962Z,0.00
2018-07-16T02:56:57.965Z,4.00
2018-07-16T02:57:57.950Z,4.00
2018-07-16T02:58:57.953Z,4.00
2018-07-16T02:59:57.952Z,4.00
2018-07-16T03:00:57.948Z,4.00
2018-07-16T03:01:57.940Z,4.00
2018-07-16T03:02:57.938Z,4.00
2018-07-16T03:03:57.937Z,8.00
2018-07-16T03:04:57.937Z,8.00
2018-07-16T03:05:57.934Z,8.00
2018-07-16T03:06:57.934Z,12.00
2018-07-16T03:07:57.932Z,12.00
2018-07-16T03:08:57.930Z,12.00
2018-07-16T03:09:57.922Z,12.00
2018-07-16T03:10:57.920Z,16.00
2018-07-16T03:11:57.920Z,16.00
2018-07-16T03:12:57.916Z,24.00
2018-07-16T03:13:57.918Z,24.00
2018-07-16T03:14:57.915Z,28.00
2018-07-16T03:15:57.909Z,32.00
2018-07-16T03:16:57.907Z,36.00
2018-07-16T03:17:57.918Z,40.00
2018-07-16T03:18:57.908Z,44.00
2018-07-16T03:19:57.911Z,48.00
2018-07-16T03:20:57.902Z,56.00
2018-07-16T03:21:57.896Z,60.00
2018-07-16T03:22:57.895Z,68.00
2018-07-16T03:23:57.892Z,72.00
2018-07-16T03:24:57.888Z,80.00
2018-07-16T03:25:57.891Z,88.00
2018-07-16T03:26:57.889Z,96.00
2018-07-16T03:27:57.888Z,108.00
2018-07-16T03:28:57.882Z,116.00
2018-07-16T03:29:57.877Z,124.00
2018-07-16T03:30:57.875Z,140.00
2018-07-16T03:31:57.876Z,152.00
2018-07-16T03:32:57.874Z,164.00
2018-07-16T03:33:57.866Z,176.00
2018-07-16T03:34:57.866Z,188.00
2018-07-16T03:35:57.863Z,208.00
2018-07-16T03:36:57.861Z,220.00
2018-07-16T03:37:57.863Z,240.00
2018-07-16T03:38:57.860Z,260.00
2018-07-16T03:39:57.859Z,276.00
2018-07-16T03:40:57.855Z,292.00
2018-07-16T03:41:57.855Z,312.00
2018-07-16T03:42:57.845Z,336.00
2018-07-16T03:43:57.843Z,360.00
2018-07-16T03:44:57.841Z,380.00
2018-07-16T03:45:57.842Z,400.00
2018-07-16T03:46:57.840Z,424.00
2018-07-16T03:47:57.878Z,448.00
2018-07-16T03:48:57.832Z,472.00
2018-07-16T03:49:57.833Z,500.00
2018-07-16T03:50:57.830Z,524.00
2018-07-16T03:51:57.828Z,552.00
2018-07-16T03:52:57.826Z,576.00
2018-07-16T03:53:57.823Z,600.00
2018-07-16T03:54:57.816Z,628.00
2018-07-16T03:55:57.940Z,652.00
2018-07-16T03:56:57.812Z,680.00
2018-07-16T03:57:57.815Z,708.00
2018-07-16T03:58:57.813Z,736.00
2018-07-16T03:59:57.808Z,764.00
2018-07-16T04:00:57.806Z,792.00
2018-07-16T04:01:57.800Z,816.00
2018-07-16T04:02:57.797Z,848.00
2018-07-16T04:03:57.799Z,872.00
2018-07-16T04:04:57.796Z,904.00
2018-07-16T04:05:57.790Z,932.00
2018-07-16T04:06:57.787Z,964.00
2018-07-16T04:07:57.786Z,992.00
2018-07-16T04:08:57.782Z,1020.00
2018-07-16T04:09:57.785Z,1052.00
2018-07-16T04:10:57.783Z,1076.00
2018-07-16T04:11:57.780Z,1104.00
2018-07-16T04:12:57.776Z,1136.00
2018-07-16T04:13:57.771Z,1168.00
2018-07-16T04:14:57.768Z,1196.00
2018-07-16T04:15:57.766Z,1228.00
2018-07-16T04:16:57.766Z,1264.00
2018-07-16T04:17:57.766Z,1296.00
2018-07-16T04:18:57.763Z,1328.00
2018-07-16T04:19:57.756Z,1360.00
2018-07-16T04:20:57.752Z,1396.00
2018-07-16T04:21:57.755Z,1428.00
2018-07-16T04:22:57.754Z,1460.00
2018-07-16T04:23:57.751Z,1492.00
2018-07-16T04:24:57.748Z,1520.00
2018-07-16T04:25:57.742Z,1548.00
2018-07-16T04:26:57.739Z,1584.00
2018-07-16T04:27:57.738Z,1620.00
2018-07-16T04:28:57.733Z,1656.00
2018-07-16T04:29:57.736Z,1688.00
2018-07-16T04:30:57.807Z,1716.00
2018-07-16T04:31:57.733Z,1760.00
2018-07-16T04:32:57.731Z,1828.00
2018-07-16T04:33:57.725Z,1972.00
2018-07-16T04:34:57.720Z,2208.00
2018-07-16T04:35:57.723Z,2228.00
2018-07-16T04:36:57.719Z,2040.00
2018-07-16T04:37:57.713Z,1960.00
2018-07-16T04:38:57.710Z,1956.00
2018-07-16T04:39:57.825Z,1976.00
2018-07-16T04:40:57.707Z,2004.00
2018-07-16T04:41:57.708Z,2036.00
2018-07-16T04:42:57.706Z,2064.00
2018-07-16T04:43:57.704Z,2100.00
2018-07-16T04:44:57.700Z,2132.00
2018-07-16T04:45:57.696Z,2164.00
2018-07-16T04:46:57.692Z,2204.00
2018-07-16T04:47:57.690Z,2240.00
2018-07-16T04:48:57.692Z,2280.00
2018-07-16T04:49:57.689Z,2320.00
2018-07-16T04:50:57.689Z,2360.00
2018-07-16T04:51:57.683Z,2404.00
2018-07-16T04:52:57.679Z,2480.00
2018-07-16T04:53:57.680Z,2664.00
2018-07-16T04:54:57.682Z,3144.00
2018-07-16T04:55:57.677Z,6116.00
2018-07-16T04:56:57.674Z,10220.00
2018-07-16T04:57:57.669Z,12396.00
2018-07-16T04:58:57.667Z,12912.00
2018-07-16T04:59:57.665Z,13400.00
2018-07-16T05:00:57.662Z,13848.00
2018-07-16T05:01:57.666Z,14368.00
2018-07-16T05:02:57.664Z,14816.00
2018-07-16T05:03:57.663Z,15200.00
2018-07-16T05:04:57.663Z,15616.00
2018-07-16T05:05:57.659Z,16000.00
2018-07-16T05:06:57.656Z,16416.00
2018-07-16T05:07:57.662Z,16800.00
2018-07-16T05:08:57.661Z,17120.00
2018-07-16T05:09:57.657Z,17408.00
2018-07-16T05:10:57.656Z,17728.00
2018-07-16T05:11:57.658Z,18016.00
2018-07-16T05:12:57.658Z,18272.00
2018-07-16T05:13:57.665Z,18592.00
2018-07-16T05:14:57.668Z,18848.00
2018-07-16T05:15:57.663Z,19104.00
2018-07-16T05:16:57.664Z,19392.00
2018-07-16T05:17:57.696Z,19584.00
2018-07-16T05:18:57.674Z,19840.00
2018-07-16T05:19:57.680Z,20128.00
2018-07-16T05:20:57.679Z,20352.00
2018-07-16T05:21:57.678Z,20640.00
2018-07-16T05:22:57.681Z,20864.00
2018-07-16T05:23:57.753Z,21088.00
2018-07-16T05:24:57.693Z,21344.00
2018-07-16T05:25:57.697Z,21600.00
2018-07-16T05:26:57.697Z,21824.00
2018-07-16T05:27:57.701Z,22048.00
2018-07-16T05:28:57.706Z,22304.00
2018-07-16T05:29:57.720Z,22496.00
2018-07-16T05:30:57.721Z,22752.00
2018-07-16T05:31:57.762Z,22976.00
2018-07-16T05:32:57.730Z,23168.00
2018-07-16T05:33:57.730Z,23392.00
2018-07-16T05:34:57.736Z,23584.00
2018-07-16T05:35:57.743Z,23808.00
2018-07-16T05:36:57.747Z,23968.00
2018-07-16T05:37:57.757Z,24192.00
2018-07-16T05:38:57.763Z,24352.00
2018-07-16T05:39:57.767Z,24544.00
2018-07-16T05:40:57.772Z,24736.00
2018-07-16T05:41:57.783Z,24992.00
2018-07-16T05:42:57.789Z,25152.00
2018-07-16T05:43:57.797Z,25344.00
2018-07-16T05:44:57.805Z,25440.00
2018-07-16T05:45:57.806Z,25632.00
2018-07-16T05:46:57.812Z,25792.00
2018-07-16T05:47:57.824Z,25952.00
2018-07-16T05:48:57.827Z,26112.00
2018-07-16T05:49:57.840Z,26272.00
2018-07-16T05:50:57.846Z,26400.00
2018-07-16T05:51:57.855Z,26624.00
2018-07-16T05:52:57.863Z,26720.00
2018-07-16T05:53:57.865Z,26944.00
2018-07-16T05:54:57.875Z,27072.00
2018-07-16T05:55:57.893Z,27296.00
2018-07-16T05:56:57.895Z,27488.00
2018-07-16T05:57:57.900Z,27616.00
2018-07-16T05:58:57.908Z,27776.00
2018-07-16T05:59:57.918Z,27872.00
2018-07-16T06:00:57.926Z,28064.00
2018-07-16T06:01:57.942Z,28192.00
2018-07-16T06:02:57.950Z,28352.00
2018-07-16T06:03:57.959Z,28448.00
2018-07-16T06:04:57.969Z,28608.00
2018-07-16T06:05:57.974Z,28672.00
2018-07-16T06:06:57.982Z,28736.00
2018-07-16T06:07:57.991Z,28896.00
2018-07-16T06:08:58.001Z,28992.00
2018-07-16T06:09:58.015Z,29152.00
2018-07-16T06:10:58.025Z,29280.00
2018-07-16T06:11:58.036Z,29376.00
2018-07-16T06:12:58.043Z,29472.00
2018-07-16T06:13:58.056Z,29536.00
2018-07-16T06:14:58.068Z,29696.00
2018-07-16T06:15:58.080Z,29760.00
2018-07-16T06:16:58.090Z,29920.00
2018-07-16T06:17:58.096Z,30016.00
2018-07-16T06:18:58.107Z,30112.00
2018-07-16T06:19:58.118Z,30240.00
2018-07-16T06:20:58.129Z,30368.00
2018-07-16T06:21:58.145Z,30496.00
2018-07-16T06:22:58.158Z,30624.00
2018-07-16T06:23:58.219Z,30752.00
2018-07-16T06:24:58.181Z,30912.00
2018-07-16T06:25:58.188Z,30944.00
2018-07-16T06:26:58.201Z,31136.00
2018-07-16T06:27:58.219Z,31296.00
2018-07-16T06:28:58.231Z,31424.00
2018-07-16T06:29:58.238Z,31520.00
2018-07-16T06:30:58.253Z,31680.00
2018-07-16T06:31:58.262Z,31776.00
2018-07-16T06:32:58.274Z,31968.00
2018-07-16T06:33:58.292Z,32032.00
2018-07-16T06:34:58.303Z,32224.00
2018-07-16T06:35:58.317Z,32320.00
2018-07-16T06:36:58.332Z,32480.00
2018-07-16T06:37:58.338Z,32608.00
2018-07-16T06:38:58.351Z,32672.00
2018-07-16T06:39:58.488Z,32800.00
2018-07-16T06:40:58.456Z,32960.00
2018-07-16T06:41:58.396Z,33120.00
2018-07-16T06:42:58.408Z,33248.00
2018-07-16T06:43:58.420Z,33344.00
2018-07-16T06:44:58.430Z,33504.00
2018-07-16T06:45:58.450Z,33632.00
2018-07-16T06:46:58.463Z,33824.00
2018-07-16T06:47:58.477Z,34016.00
2018-07-16T06:48:58.489Z,34048.00
2018-07-16T06:49:58.502Z,34240.00
2018-07-16T06:50:58.513Z,34272.00
2018-07-16T06:51:58.529Z,34368.00
2018-07-16T06:52:58.542Z,34496.00
2018-07-16T06:53:58.559Z,34688.00
2018-07-16T06:54:58.611Z,34720.00
2018-07-16T06:55:58.590Z,34880.00
2018-07-16T06:56:58.605Z,35040.00
2018-07-16T06:57:58.612Z,35136.00
2018-07-16T06:58:58.627Z,35296.00
2018-07-16T06:59:58.645Z,35520.00
2018-07-16T07:00:58.660Z,35680.00
2018-07-16T07:01:58.672Z,36000.00
2018-07-16T07:02:58.683Z,36480.00
2018-07-16T07:03:58.698Z,36864.00
2018-07-16T07:04:58.712Z,37184.00
2018-07-16T07:05:58.737Z,37408.00
2018-07-16T07:06:58.746Z,37760.00
2018-07-16T07:07:58.771Z,38368.00
2018-07-16T07:08:58.777Z,39104.00
2018-07-16T07:09:58.849Z,40352.00
2018-07-16T07:10:58.803Z,41728.00
2018-07-16T07:11:58.818Z,43680.00
2018-07-16T07:12:58.833Z,46944.00
2018-07-16T07:13:58.857Z,52896.00
2018-07-16T07:14:58.868Z,58912.00
2018-07-16T07:15:58.883Z,66848.00
2018-07-16T07:16:58.894Z,71488.00
2018-07-16T07:17:58.926Z,72576.00
2018-07-16T07:18:58.937Z,69408.00
2018-07-16T07:19:58.948Z,66432.00
2018-07-16T07:20:58.963Z,67904.00
2018-07-16T07:21:58.975Z,68544.00
2018-07-16T07:22:58.991Z,68640.00
2018-07-16T07:23:59.008Z,68672.00
2018-07-16T07:24:59.023Z,71392.00
2018-07-16T07:25:59.043Z,73888.00
2018-07-16T07:26:59.061Z,78752.00
2018-07-16T07:27:59.077Z,83936.00
2018-07-16T07:28:59.094Z,89984.00
2018-07-16T07:29:59.106Z,89440.00
2018-07-16T07:30:59.123Z,92160.00
2018-07-16T07:31:59.144Z,96544.00
2018-07-16T07:32:59.162Z,96576.00
2018-07-16T07:33:59.174Z,94432.00
2018-07-16T07:34:59.199Z,93984.00
2018-07-16T07:35:59.278Z,100064.00
2018-07-16T07:36:59.226Z,91424.00
2018-07-16T07:37:59.249Z,91776.00
2018-07-16T07:38:59.270Z,95968.00
2018-07-16T07:39:59.284Z,101728.00
2018-07-16T07:40:59.302Z,106752.00
2018-07-16T07:41:59.314Z,101984.00
2018-07-16T07:42:59.336Z,94496.00
2018-07-16T07:43:59.349Z,92736.00
2018-07-16T07:44:59.365Z,96896.00
2018-07-16T07:45:59.390Z,92736.00
2018-07-16T07:46:59.407Z,84096.00
2018-07-16T07:47:59.419Z,80864.00
2018-07-16T07:48:59.436Z,78400.00
2018-07-16T07:49:59.463Z,76512.00
2018-07-16T07:50:59.481Z,72512.00
2018-07-16T07:51:59.496Z,74048.00
2018-07-16T07:52:59.515Z,76000.00
2018-07-16T07:53:59.526Z,76640.00
2018-07-16T07:54:59.993Z,73088.00
2018-07-16T07:55:59.563Z,72224.00
2018-07-16T07:56:59.578Z,70176.00
2018-07-16T07:57:59.601Z,73344.00
2018-07-16T07:58:59.620Z,75648.00
2018-07-16T07:59:59.637Z,63520.00
2018-07-16T08:00:59.657Z,53408.00
2018-07-16T08:01:59.672Z,57984.00
2018-07-16T08:02:59.689Z,59040.00
2018-07-16T08:03:59.713Z,57376.00
2018-07-16T08:04:59.730Z,56096.00
2018-07-16T08:05:59.747Z,56064.00
2018-07-16T08:06:59.763Z,56448.00
2018-07-16T08:07:59.786Z,57664.00
2018-07-16T08:08:59.802Z,59456.00
2018-07-16T08:09:59.825Z,57472.00
2018-07-16T08:10:59.845Z,55232.00
2018-07-16T08:11:59.865Z,53952.00
2018-07-16T08:12:59.887Z,52000.00
2018-07-16T08:13:59.899Z,50752.00
2018-07-16T08:14:59.917Z,49056.00
2018-07-16T08:15:59.938Z,51712.00
2018-07-16T08:16:59.957Z,52544.00
2018-07-16T08:17:59.981Z,51392.00
2018-07-16T08:19:00.000Z,51232.00
2018-07-16T08:20:00.027Z,49920.00
2018-07-16T08:21:00.091Z,48736.00
2018-07-16T08:22:00.068Z,48448.00
2018-07-16T08:23:00.081Z,49856.00
2018-07-16T08:24:00.103Z,50112.00
2018-07-16T08:25:00.122Z,50112.00
2018-07-16T08:26:00.138Z,48480.00
2018-07-16T08:27:00.157Z,47744.00
2018-07-16T08:28:00.221Z,48320.00
2018-07-16T08:29:00.197Z,48224.00
2018-07-16T08:30:00.222Z,49376.00
2018-07-16T08:31:00.242Z,50208.00
2018-07-16T08:32:00.266Z,50432.00
2018-07-16T08:33:00.284Z,50560.00
2018-07-16T08:34:00.300Z,50144.00
2018-07-16T08:35:00.319Z,48832.00
2018-07-16T08:36:00.346Z,50208.00
2018-07-16T08:37:00.366Z,53280.00
2018-07-16T08:38:00.382Z,53312.00
2018-07-16T08:39:00.417Z,49536.00
2018-07-16T08:40:00.423Z,47296.00
2018-07-16T08:41:00.443Z,48288.00
2018-07-16T08:42:00.468Z,53728.00
2018-07-16T08:43:00.490Z,55584.00
2018-07-16T08:44:00.511Z,53088.00
2018-07-16T08:45:00.533Z,54112.00
2018-07-16T08:46:00.549Z,58144.00
2018-07-16T08:47:00.592Z,57248.00
2018-07-16T08:48:00.601Z,53856.00
2018-07-16T08:49:00.614Z,53280.00
2018-07-16T08:50:00.642Z,55200.00
2018-07-16T08:51:00.663Z,61536.00
2018-07-16T08:52:00.680Z,68960.00
2018-07-16T08:53:00.702Z,69120.00
2018-07-16T08:54:00.728Z,62432.00
2018-07-16T08:55:00.754Z,55584.00
2018-07-16T08:56:00.774Z,53728.00
2018-07-16T08:57:00.795Z,51040.00
2018-07-16T08:58:00.813Z,49024.00
2018-07-16T08:59:00.836Z,48928.00
2018-07-16T09:00:00.859Z,47968.00
2018-07-16T09:01:00.887Z,47136.00
2018-07-16T09:02:00.908Z,45440.00
2018-07-16T09:03:00.931Z,45856.00
2018-07-16T09:04:01.007Z,45216.00
2018-07-16T09:05:00.978Z,45600.00
2018-07-16T09:06:00.996Z,45792.00
2018-07-16T09:07:01.035Z,45664.00
2018-07-16T09:08:01.046Z,46112.00
2018-07-16T09:09:01.069Z,46592.00
2018-07-16T09:10:01.086Z,47008.00
2018-07-16T09:11:01.182Z,46912.00
2018-07-16T09:12:01.131Z,47040.00
2018-07-16T09:13:01.151Z,47488.00
2018-07-16T09:14:01.179Z,47424.00
2018-07-16T09:15:01.200Z,47264.00
2018-07-16T09:16:01.222Z,47552.00
2018-07-16T09:17:01.347Z,48192.00
2018-07-16T09:18:01.262Z,47264.00
2018-07-16T09:19:01.282Z,47392.00
2018-07-16T09:20:01.304Z,48192.00
2018-07-16T09:21:01.325Z,48192.00
2018-07-16T09:22:01.353Z,48448.00
2018-07-16T09:23:01.381Z,48416.00
2018-07-16T09:24:01.410Z,48096.00
2018-07-16T09:25:01.412Z,48544.00
2018-07-16T09:26:01.438Z,48544.00
2018-07-16T09:27:01.461Z,48128.00
2018-07-16T09:28:01.482Z,48544.00
2018-07-16T09:29:01.506Z,47584.00
2018-07-16T09:30:01.521Z,46976.00
2018-07-16T09:31:01.542Z,47072.00
2018-07-16T09:32:01.566Z,46816.00
2018-07-16T09:33:01.588Z,46816.00
2018-07-16T09:34:01.615Z,46304.00
2018-07-16T09:35:01.636Z,46304.00
2018-07-16T09:36:01.660Z,46080.00
2018-07-16T09:37:01.681Z,45920.00
2018-07-16T09:38:01.700Z,45696.00
2018-07-16T09:39:01.778Z,45408.00
2018-07-16T09:40:01.749Z,44992.00
2018-07-16T09:41:01.769Z,44640.00
2018-07-16T09:42:01.789Z,44736.00
2018-07-16T09:43:01.810Z,44640.00
2018-07-16T09:44:01.832Z,44352.00
2018-07-16T09:45:01.849Z,44320.00
2018-07-16T09:46:01.875Z,43712.00
2018-07-16T09:47:01.897Z,43776.00
2018-07-16T09:48:01.919Z,44096.00
2018-07-16T09:49:01.941Z,44768.00
2018-07-16T09:50:01.958Z,45952.00
2018-07-16T09:51:01.983Z,55552.00
2018-07-16T09:52:02.004Z,72000.00
2018-07-16T09:53:02.026Z,85376.00
2018-07-16T09:54:02.051Z,86272.00
2018-07-16T09:55:02.077Z,86560.00
2018-07-16T09:56:02.164Z,89856.00
2018-07-16T09:57:02.115Z,93216.00
2018-07-16T09:58:02.141Z,91360.00
2018-07-16T09:59:02.163Z,86912.00
2018-07-16T10:00:02.209Z,88032.00
2018-07-16T10:01:02.206Z,90176.00
2018-07-16T10:02:02.225Z,91392.00
2018-07-16T10:03:02.247Z,91744.00
2018-07-16T10:04:02.269Z,88064.00
2018-07-16T10:05:02.293Z,84128.00
2018-07-16T10:06:02.319Z,80992.00
2018-07-16T10:07:02.344Z,82880.00
2018-07-16T10:08:02.392Z,85312.00
2018-07-16T10:09:02.389Z,86816.00
2018-07-16T10:10:02.408Z,85472.00
2018-07-16T10:11:02.429Z,86752.00
2018-07-16T10:12:02.458Z,86880.00
2018-07-16T10:13:02.480Z,89600.00
2018-07-16T10:14:02.496Z,90272.00
2018-07-16T10:15:02.519Z,89856.00
2018-07-16T10:16:02.543Z,88896.00
2018-07-16T10:17:02.565Z,84160.00
2018-07-16T10:18:02.590Z,86080.00
2018-07-16T10:19:02.614Z,84608.00
2018-07-16T10:20:02.636Z,83424.00
2018-07-16T10:21:02.659Z,83264.00
2018-07-16T10:22:02.676Z,82592.00
2018-07-16T10:23:02.700Z,83616.00
2018-07-16T10:24:02.723Z,83808.00
2018-07-16T10:25:02.747Z,84800.00
2018-07-16T10:26:02.775Z,81856.00
2018-07-16T10:27:02.797Z,80960.00
2018-07-16T10:28:02.816Z,78336.00
2018-07-16T10:29:02.837Z,77152.00
2018-07-16T10:30:02.866Z,74656.00
2018-07-16T10:31:02.889Z,73216.00
2018-07-16T10:32:02.912Z,70752.00
2018-07-16T10:33:02.939Z,70720.00
2018-07-16T10:34:02.953Z,70592.00
2018-07-16T10:35:02.977Z,71232.00
2018-07-16T10:36:02.999Z,68864.00
2018-07-16T10:37:03.020Z,71232.00
2018-07-16T10:38:03.048Z,71744.00
2018-07-16T10:39:03.072Z,71680.00
2018-07-16T10:40:03.093Z,69760.00
2018-07-16T10:41:03.114Z,69568.00
2018-07-16T10:42:03.132Z,68928.00
2018-07-16T10:43:03.154Z,68672.00
2018-07-16T10:44:03.182Z,68288.00
2018-07-16T10:45:03.202Z,67808.00
2018-07-16T10:46:03.221Z,68032.00
2018-07-16T10:47:03.245Z,68128.00
2018-07-16T10:48:03.265Z,69216.00
2018-07-16T10:49:03.285Z,68992.00
2018-07-16T10:50:03.311Z,67200.00
2018-07-16T10:51:03.334Z,67296.00
2018-07-16T10:52:03.355Z,70176.00
2018-07-16T10:53:03.377Z,72800.00
2018-07-16T10:54:03.392Z,71968.00
2018-07-16T10:55:03.454Z,70144.00
2018-07-16T10:56:03.438Z,71296.00
2018-07-16T10:57:03.459Z,70976.00
2018-07-16T10:58:03.481Z,70368.00
2018-07-16T10:59:03.502Z,70368.00
2018-07-16T11:00:03.520Z,73248.00
2018-07-16T11:01:03.539Z,73600.00
2018-07-16T11:02:03.674Z,72864.00
2018-07-16T11:03:03.680Z,71584.00
2018-07-16T11:04:03.609Z,72480.00
2018-07-16T11:05:03.629Z,75712.00
2018-07-16T11:06:03.645Z,74304.00
2018-07-16T11:07:03.665Z,74912.00
2018-07-16T11:08:03.685Z,81760.00
2018-07-16T11:09:03.705Z,83136.00
2018-07-16T11:10:03.731Z,83648.00
2018-07-16T11:11:03.751Z,84160.00
2018-07-16T11:12:03.773Z,87936.00
2018-07-16T11:13:03.790Z,88672.00
2018-07-16T11:14:03.807Z,89344.00
2018-07-16T11:15:03.867Z,89952.00
2018-07-16T11:16:03.853Z,90720.00
2018-07-16T11:17:03.873Z,91072.00
2018-07-16T11:18:03.890Z,92928.00
2018-07-16T11:19:03.909Z,94176.00
2018-07-16T11:20:03.931Z,94880.00
2018-07-16T11:21:03.954Z,93760.00
2018-07-16T11:22:03.976Z,90080.00
2018-07-16T11:23:03.995Z,91968.00
2018-07-16T11:24:04.017Z,91296.00
2018-07-16T11:25:04.036Z,93760.00
2018-07-16T11:26:04.053Z,93696.00
2018-07-16T11:27:04.071Z,56096.00
2018-07-16T11:28:04.090Z,11220.00
2018-07-16T11:29:04.108Z,6932.00
2018-07-16T11:30:04.131Z,6060.00
2018-07-16T11:31:04.154Z,5864.00
2018-07-16T11:32:04.164Z,5768.00
2018-07-16T11:33:04.181Z,5684.00
2018-07-16T11:34:04.202Z,5596.00
2018-07-16T11:35:04.220Z,5520.00
2018-07-16T11:36:04.237Z,5484.00
2018-07-16T11:37:04.253Z,5460.00
2018-07-16T11:38:04.270Z,5452.00
2018-07-16T11:39:04.280Z,5460.00
2018-07-16T11:40:04.296Z,5456.00
2018-07-16T11:41:04.311Z,5428.00
2018-07-16T11:42:04.329Z,5404.00
2018-07-16T11:43:04.344Z,5384.00
2018-07-16T11:44:04.359Z,5360.00
2018-07-16T11:45:04.373Z,5348.00
2018-07-16T11:46:04.427Z,5328.00
2018-07-16T11:47:04.395Z,5300.00
2018-07-16T11:48:04.419Z,5280.00
2018-07-16T11:49:04.425Z,5264.00
2018-07-16T11:50:04.435Z,5296.00
2018-07-16T11:51:04.446Z,5292.00
2018-07-16T11:52:04.491Z,5268.00
2018-07-16T11:53:04.468Z,5252.00
2018-07-16T11:54:04.484Z,5240.00
2018-07-16T11:55:04.496Z,5232.00
2018-07-16T11:56:04.508Z,5232.00
2018-07-16T11:57:04.519Z,5228.00
2018-07-16T11:58:04.525Z,5208.00
2018-07-16T11:59:04.711Z,5168.00
2018-07-16T12:00:04.545Z,5112.00
2018-07-16T12:01:04.555Z,5076.00
2018-07-16T12:02:04.580Z,5044.00
2018-07-16T12:03:04.583Z,5024.00
2018-07-16T12:04:04.587Z,5004.00
2018-07-16T12:05:04.659Z,4988.00
2018-07-16T12:06:04.609Z,4980.00
2018-07-16T12:07:04.618Z,4992.00
2018-07-16T12:08:04.626Z,4968.00
2018-07-16T12:09:04.636Z,4920.00
2018-07-16T12:10:04.639Z,4848.00
2018-07-16T12:11:04.649Z,4816.00
2018-07-16T12:12:04.656Z,4792.00
2018-07-16T12:13:04.665Z,4784.00
2018-07-16T12:14:04.677Z,4784.00